sensor_id;sensor_type;location;lat;lon;timestamp;P1;durP1;ratioP1;P2;durP2;ratioP2
48526;SDS011;34317;51.660;5.824;2022-07-06T00:01:10;2.45;;;1.75;;
48526;SDS011;34317;51.660;5.824;2022-07-06T00:03:37;3.13;;;1.70;;
48526;SDS011;34317;51.660;5.824;2022-07-06T00:06:04;3.33;;;1.75;;
48526;SDS011;34317;51.660;5.824;2022-07-06T00:08:32;3.90;;;1.95;;
48526;SDS011;34317;51.660;5.824;2022-07-06T00:10:59;5.68;;;1.90;;
48526;SDS011;34317;51.660;5.824;2022-07-06T00:13:27;2.85;;;1.73;;
48526;SDS011;34317;51.660;5.824;2022-07-06T00:15:55;2.88;;;1.70;;
48526;SDS011;34317;51.660;5.824;2022-07-06T00:18:22;4.10;;;1.83;;
48526;SDS011;34317;51.660;5.824;2022-07-06T00:20:50;3.15;;;1.85;;
48526;SDS011;34317;51.660;5.824;2022-07-06T00:23:17;3.80;;;1.80;;
48526;SDS011;34317;51.660;5.824;2022-07-06T00:25:44;2.92;;;1.92;;
48526;SDS011;34317;51.660;5.824;2022-07-06T00:28:11;2.92;;;1.70;;
48526;SDS011;34317;51.660;5.824;2022-07-06T00:30:38;3.22;;;1.70;;
48526;SDS011;34317;51.660;5.824;2022-07-06T00:33:06;3.70;;;2.00;;
48526;SDS011;34317;51.660;5.824;2022-07-06T00:35:33;2.50;;;1.95;;
48526;SDS011;34317;51.660;5.824;2022-07-06T00:38:01;3.53;;;2.15;;
48526;SDS011;34317;51.660;5.824;2022-07-06T00:40:28;5.80;;;2.20;;
48526;SDS011;34317;51.660;5.824;2022-07-06T00:42:56;5.45;;;2.50;;
48526;SDS011;34317;51.660;5.824;2022-07-06T00:45:24;4.00;;;2.45;;
48526;SDS011;34317;51.660;5.824;2022-07-06T00:47:51;2.95;;;2.20;;
48526;SDS011;34317;51.660;5.824;2022-07-06T00:50:18;5.53;;;2.67;;
48526;SDS011;34317;51.660;5.824;2022-07-06T00:52:50;6.72;;;2.47;;
48526;SDS011;34317;51.660;5.824;2022-07-06T00:55:22;3.58;;;2.28;;
48526;SDS011;34317;51.660;5.824;2022-07-06T00:57:51;6.07;;;2.60;;
48526;SDS011;34317;51.660;5.824;2022-07-06T01:00:19;4.43;;;2.45;;
48526;SDS011;34317;51.660;5.824;2022-07-06T01:02:47;8.45;;;2.90;;
48526;SDS011;34317;51.660;5.824;2022-07-06T01:05:15;5.15;;;2.97;;
48526;SDS011;34317;51.660;5.824;2022-07-06T01:07:43;5.28;;;2.70;;
48526;SDS011;34317;51.660;5.824;2022-07-06T01:10:12;5.10;;;2.80;;
48526;SDS011;34317;51.660;5.824;2022-07-06T01:12:42;6.45;;;2.60;;
48526;SDS011;34317;51.660;5.824;2022-07-06T01:15:11;6.13;;;2.60;;
48526;SDS011;34317;51.660;5.824;2022-07-06T01:17:41;7.10;;;3.15;;
48526;SDS011;34317;51.660;5.824;2022-07-06T01:20:28;4.47;;;2.95;;
48526;SDS011;34317;51.660;5.824;2022-07-06T01:22:58;7.13;;;3.10;;
48526;SDS011;34317;51.660;5.824;2022-07-06T01:25:26;5.60;;;2.80;;
48526;SDS011;34317;51.660;5.824;2022-07-06T01:27:54;4.05;;;2.85;;
48526;SDS011;34317;51.660;5.824;2022-07-06T01:30:21;7.03;;;3.15;;
48526;SDS011;34317;51.660;5.824;2022-07-06T01:32:48;6.15;;;3.00;;
48526;SDS011;34317;51.660;5.824;2022-07-06T01:35:15;6.38;;;2.88;;
48526;SDS011;34317;51.660;5.824;2022-07-06T01:37:43;4.13;;;2.60;;
48526;SDS011;34317;51.660;5.824;2022-07-06T01:40:10;8.32;;;3.10;;
48526;SDS011;34317;51.660;5.824;2022-07-06T01:42:39;6.80;;;2.95;;
48526;SDS011;34317;51.660;5.824;2022-07-06T01:45:07;4.38;;;2.70;;
48526;SDS011;34317;51.660;5.824;2022-07-06T01:47:35;5.55;;;2.97;;
48526;SDS011;34317;51.660;5.824;2022-07-06T01:50:05;4.45;;;2.90;;
48526;SDS011;34317;51.660;5.824;2022-07-06T01:52:35;5.15;;;3.03;;
48526;SDS011;34317;51.660;5.824;2022-07-06T01:55:03;6.47;;;3.15;;
48526;SDS011;34317;51.660;5.824;2022-07-06T01:57:33;6.80;;;3.13;;
48526;SDS011;34317;51.660;5.824;2022-07-06T02:00:00;5.72;;;2.90;;
48526;SDS011;34317;51.660;5.824;2022-07-06T02:02:27;4.65;;;3.10;;
48526;SDS011;34317;51.660;5.824;2022-07-06T02:04:55;5.85;;;3.03;;
48526;SDS011;34317;51.660;5.824;2022-07-06T02:07:22;5.88;;;3.05;;
48526;SDS011;34317;51.660;5.824;2022-07-06T02:09:50;3.90;;;3.03;;
48526;SDS011;34317;51.660;5.824;2022-07-06T02:12:17;4.93;;;3.13;;
48526;SDS011;34317;51.660;5.824;2022-07-06T02:14:44;7.20;;;3.70;;
48526;SDS011;34317;51.660;5.824;2022-07-06T02:17:11;4.55;;;3.10;;
48526;SDS011;34317;51.660;5.824;2022-07-06T02:19:39;4.35;;;3.08;;
48526;SDS011;34317;51.660;5.824;2022-07-06T02:22:07;5.75;;;3.13;;
48526;SDS011;34317;51.660;5.824;2022-07-06T02:24:34;6.22;;;3.55;;
48526;SDS011;34317;51.660;5.824;2022-07-06T02:27:01;4.97;;;3.33;;
48526;SDS011;34317;51.660;5.824;2022-07-06T02:29:29;5.40;;;3.28;;
48526;SDS011;34317;51.660;5.824;2022-07-06T02:31:56;6.68;;;3.38;;
48526;SDS011;34317;51.660;5.824;2022-07-06T02:34:24;5.28;;;3.60;;
48526;SDS011;34317;51.660;5.824;2022-07-06T02:36:53;4.68;;;3.25;;
48526;SDS011;34317;51.660;5.824;2022-07-06T02:39:21;5.72;;;3.42;;
48526;SDS011;34317;51.660;5.824;2022-07-06T02:41:48;7.38;;;3.50;;
48526;SDS011;34317;51.660;5.824;2022-07-06T02:44:16;5.00;;;3.08;;
48526;SDS011;34317;51.660;5.824;2022-07-06T02:46:43;5.60;;;3.65;;
48526;SDS011;34317;51.660;5.824;2022-07-06T02:49:10;5.72;;;3.63;;
48526;SDS011;34317;51.660;5.824;2022-07-06T02:51:38;4.47;;;3.15;;
48526;SDS011;34317;51.660;5.824;2022-07-06T02:54:05;5.78;;;3.60;;
48526;SDS011;34317;51.660;5.824;2022-07-06T02:56:32;4.88;;;3.30;;
48526;SDS011;34317;51.660;5.824;2022-07-06T02:58:59;6.20;;;3.58;;
48526;SDS011;34317;51.660;5.824;2022-07-06T03:01:27;6.97;;;3.30;;
48526;SDS011;34317;51.660;5.824;2022-07-06T03:03:55;5.13;;;3.50;;
48526;SDS011;34317;51.660;5.824;2022-07-06T03:06:22;5.47;;;3.50;;
48526;SDS011;34317;51.660;5.824;2022-07-06T03:08:49;5.53;;;3.60;;
48526;SDS011;34317;51.660;5.824;2022-07-06T03:11:16;5.85;;;3.40;;
48526;SDS011;34317;51.660;5.824;2022-07-06T03:13:45;6.90;;;3.28;;
48526;SDS011;34317;51.660;5.824;2022-07-06T03:16:12;6.78;;;4.00;;
48526;SDS011;34317;51.660;5.824;2022-07-06T03:18:40;5.65;;;3.33;;
48526;SDS011;34317;51.660;5.824;2022-07-06T03:21:07;5.13;;;3.35;;
48526;SDS011;34317;51.660;5.824;2022-07-06T03:23:34;6.72;;;3.50;;
48526;SDS011;34317;51.660;5.824;2022-07-06T03:26:02;6.10;;;3.28;;
48526;SDS011;34317;51.660;5.824;2022-07-06T03:28:30;7.55;;;3.50;;
48526;SDS011;34317;51.660;5.824;2022-07-06T03:30:57;6.95;;;3.30;;
48526;SDS011;34317;51.660;5.824;2022-07-06T03:33:25;6.68;;;3.40;;
48526;SDS011;34317;51.660;5.824;2022-07-06T03:35:52;7.20;;;3.30;;
48526;SDS011;34317;51.660;5.824;2022-07-06T03:38:20;6.15;;;3.15;;
48526;SDS011;34317;51.660;5.824;2022-07-06T03:40:47;7.07;;;3.42;;
48526;SDS011;34317;51.660;5.824;2022-07-06T03:43:14;5.43;;;2.90;;
48526;SDS011;34317;51.660;5.824;2022-07-06T03:45:42;4.70;;;3.10;;
48526;SDS011;34317;51.660;5.824;2022-07-06T03:48:09;6.22;;;3.17;;
48526;SDS011;34317;51.660;5.824;2022-07-06T03:50:39;4.95;;;3.05;;
48526;SDS011;34317;51.660;5.824;2022-07-06T03:53:07;5.72;;;2.90;;
48526;SDS011;34317;51.660;5.824;2022-07-06T03:55:34;5.25;;;3.05;;
48526;SDS011;34317;51.660;5.824;2022-07-06T03:58:06;6.93;;;3.30;;
48526;SDS011;34317;51.660;5.824;2022-07-06T04:00:36;5.65;;;3.22;;
48526;SDS011;34317;51.660;5.824;2022-07-06T04:03:06;7.22;;;3.35;;
48526;SDS011;34317;51.660;5.824;2022-07-06T04:05:40;7.78;;;3.47;;
48526;SDS011;34317;51.660;5.824;2022-07-06T04:08:08;5.65;;;3.00;;
48526;SDS011;34317;51.660;5.824;2022-07-06T04:10:41;7.28;;;3.22;;
48526;SDS011;34317;51.660;5.824;2022-07-06T04:13:08;5.97;;;3.00;;
48526;SDS011;34317;51.660;5.824;2022-07-06T04:15:35;3.75;;;2.70;;
48526;SDS011;34317;51.660;5.824;2022-07-06T04:18:03;5.68;;;2.90;;
48526;SDS011;34317;51.660;5.824;2022-07-06T04:20:36;4.57;;;2.80;;
48526;SDS011;34317;51.660;5.824;2022-07-06T04:23:04;6.15;;;3.28;;
48526;SDS011;34317;51.660;5.824;2022-07-06T04:25:31;6.20;;;2.90;;
48526;SDS011;34317;51.660;5.824;2022-07-06T04:28:01;5.20;;;3.20;;
48526;SDS011;34317;51.660;5.824;2022-07-06T04:30:30;4.22;;;3.13;;
48526;SDS011;34317;51.660;5.824;2022-07-06T04:33:02;4.88;;;2.88;;
48526;SDS011;34317;51.660;5.824;2022-07-06T04:35:32;6.03;;;2.80;;
48526;SDS011;34317;51.660;5.824;2022-07-06T04:37:59;5.93;;;3.10;;
48526;SDS011;34317;51.660;5.824;2022-07-06T04:40:28;6.40;;;2.90;;
48526;SDS011;34317;51.660;5.824;2022-07-06T04:42:59;5.32;;;3.00;;
48526;SDS011;34317;51.660;5.824;2022-07-06T04:45:28;4.63;;;2.90;;
48526;SDS011;34317;51.660;5.824;2022-07-06T04:47:56;7.45;;;3.00;;
48526;SDS011;34317;51.660;5.824;2022-07-06T04:50:23;5.20;;;2.88;;
48526;SDS011;34317;51.660;5.824;2022-07-06T04:52:53;7.95;;;3.10;;
48526;SDS011;34317;51.660;5.824;2022-07-06T04:55:20;5.07;;;2.92;;
48526;SDS011;34317;51.660;5.824;2022-07-06T04:57:48;8.45;;;3.00;;
48526;SDS011;34317;51.660;5.824;2022-07-06T05:00:17;7.38;;;3.08;;
48526;SDS011;34317;51.660;5.824;2022-07-06T05:02:46;4.50;;;2.70;;
48526;SDS011;34317;51.660;5.824;2022-07-06T05:05:15;4.70;;;3.13;;
48526;SDS011;34317;51.660;5.824;2022-07-06T05:07:43;9.75;;;3.28;;
48526;SDS011;34317;51.660;5.824;2022-07-06T05:10:10;4.55;;;2.85;;
48526;SDS011;34317;51.660;5.824;2022-07-06T05:12:41;6.63;;;2.72;;
48526;SDS011;34317;51.660;5.824;2022-07-06T05:15:09;5.88;;;2.88;;
48526;SDS011;34317;51.660;5.824;2022-07-06T05:17:37;5.18;;;3.00;;
48526;SDS011;34317;51.660;5.824;2022-07-06T05:20:05;6.10;;;2.90;;
48526;SDS011;34317;51.660;5.824;2022-07-06T05:22:37;6.18;;;2.75;;
48526;SDS011;34317;51.660;5.824;2022-07-06T05:25:13;6.50;;;2.70;;
48526;SDS011;34317;51.660;5.824;2022-07-06T05:27:41;7.05;;;2.55;;
48526;SDS011;34317;51.660;5.824;2022-07-06T05:30:08;4.85;;;2.67;;
48526;SDS011;34317;51.660;5.824;2022-07-06T05:32:37;6.47;;;2.63;;
48526;SDS011;34317;51.660;5.824;2022-07-06T05:35:05;9.80;;;3.17;;
48526;SDS011;34317;51.660;5.824;2022-07-06T05:37:53;4.63;;;2.58;;
48526;SDS011;34317;51.660;5.824;2022-07-06T05:40:20;3.67;;;2.35;;
48526;SDS011;34317;51.660;5.824;2022-07-06T05:42:48;4.78;;;2.63;;
48526;SDS011;34317;51.660;5.824;2022-07-06T05:45:16;5.47;;;2.60;;
48526;SDS011;34317;51.660;5.824;2022-07-06T05:47:43;5.60;;;3.00;;
48526;SDS011;34317;51.660;5.824;2022-07-06T05:50:34;6.47;;;2.30;;
48526;SDS011;34317;51.660;5.824;2022-07-06T05:53:03;3.75;;;2.40;;
48526;SDS011;34317;51.660;5.824;2022-07-06T05:55:44;5.20;;;2.30;;
48526;SDS011;34317;51.660;5.824;2022-07-06T05:58:12;4.68;;;2.60;;
48526;SDS011;34317;51.660;5.824;2022-07-06T06:00:41;3.10;;;2.10;;
48526;SDS011;34317;51.660;5.824;2022-07-06T06:03:13;3.97;;;2.30;;
48526;SDS011;34317;51.660;5.824;2022-07-06T06:05:41;5.22;;;2.00;;
48526;SDS011;34317;51.660;5.824;2022-07-06T06:08:10;3.88;;;2.40;;
48526;SDS011;34317;51.660;5.824;2022-07-06T06:10:37;7.88;;;2.20;;
48526;SDS011;34317;51.660;5.824;2022-07-06T06:13:07;6.60;;;2.22;;
48526;SDS011;34317;51.660;5.824;2022-07-06T06:15:36;5.95;;;2.38;;
48526;SDS011;34317;51.660;5.824;2022-07-06T06:18:04;5.50;;;2.30;;
48526;SDS011;34317;51.660;5.824;2022-07-06T06:20:31;3.47;;;2.25;;
48526;SDS011;34317;51.660;5.824;2022-07-06T06:22:59;3.88;;;1.98;;
48526;SDS011;34317;51.660;5.824;2022-07-06T06:25:31;6.57;;;2.03;;
48526;SDS011;34317;51.660;5.824;2022-07-06T06:27:59;4.15;;;2.00;;
48526;SDS011;34317;51.660;5.824;2022-07-06T06:30:27;3.35;;;1.83;;
48526;SDS011;34317;51.660;5.824;2022-07-06T06:33:04;3.78;;;2.03;;
48526;SDS011;34317;51.660;5.824;2022-07-06T06:35:36;3.40;;;1.90;;
48526;SDS011;34317;51.660;5.824;2022-07-06T06:38:04;3.40;;;1.77;;
48526;SDS011;34317;51.660;5.824;2022-07-06T06:40:31;3.60;;;1.95;;
48526;SDS011;34317;51.660;5.824;2022-07-06T06:42:58;2.97;;;1.42;;
48526;SDS011;34317;51.660;5.824;2022-07-06T06:45:25;2.47;;;1.60;;
48526;SDS011;34317;51.660;5.824;2022-07-06T06:47:53;3.22;;;1.70;;
48526;SDS011;34317;51.660;5.824;2022-07-06T06:50:20;3.72;;;1.50;;
48526;SDS011;34317;51.660;5.824;2022-07-06T06:52:50;2.22;;;1.50;;
48526;SDS011;34317;51.660;5.824;2022-07-06T06:55:17;3.03;;;2.05;;
48526;SDS011;34317;51.660;5.824;2022-07-06T06:57:45;3.15;;;1.70;;
48526;SDS011;34317;51.660;5.824;2022-07-06T07:00:12;4.07;;;1.80;;
48526;SDS011;34317;51.660;5.824;2022-07-06T07:02:40;2.80;;;1.75;;
48526;SDS011;34317;51.660;5.824;2022-07-06T07:05:07;2.72;;;1.45;;
48526;SDS011;34317;51.660;5.824;2022-07-06T07:07:35;1.98;;;0.90;;
48526;SDS011;34317;51.660;5.824;2022-07-06T07:10:04;1.80;;;1.00;;
48526;SDS011;34317;51.660;5.824;2022-07-06T07:12:32;2.83;;;0.88;;
48526;SDS011;34317;51.660;5.824;2022-07-06T07:15:00;2.17;;;1.00;;
48526;SDS011;34317;51.660;5.824;2022-07-06T07:17:28;3.28;;;1.30;;
48526;SDS011;34317;51.660;5.824;2022-07-06T07:19:55;1.70;;;1.27;;
48526;SDS011;34317;51.660;5.824;2022-07-06T07:22:24;3.10;;;0.98;;
48526;SDS011;34317;51.660;5.824;2022-07-06T07:24:51;2.55;;;0.93;;
48526;SDS011;34317;51.660;5.824;2022-07-06T07:27:18;3.15;;;1.45;;
48526;SDS011;34317;51.660;5.824;2022-07-06T07:29:45;2.15;;;0.80;;
48526;SDS011;34317;51.660;5.824;2022-07-06T07:32:12;2.63;;;1.08;;
48526;SDS011;34317;51.660;5.824;2022-07-06T07:34:39;3.00;;;1.10;;
48526;SDS011;34317;51.660;5.824;2022-07-06T07:37:07;2.85;;;1.10;;
48526;SDS011;34317;51.660;5.824;2022-07-06T07:39:34;2.00;;;1.00;;
48526;SDS011;34317;51.660;5.824;2022-07-06T07:42:01;2.88;;;1.00;;
48526;SDS011;34317;51.660;5.824;2022-07-06T07:44:28;2.72;;;1.00;;
48526;SDS011;34317;51.660;5.824;2022-07-06T07:46:55;4.22;;;1.20;;
48526;SDS011;34317;51.660;5.824;2022-07-06T07:49:22;2.20;;;1.02;;
48526;SDS011;34317;51.660;5.824;2022-07-06T07:51:49;2.63;;;1.20;;
48526;SDS011;34317;51.660;5.824;2022-07-06T07:54:17;3.55;;;1.08;;
48526;SDS011;34317;51.660;5.824;2022-07-06T07:56:44;1.55;;;1.05;;
48526;SDS011;34317;51.660;5.824;2022-07-06T07:59:12;3.42;;;1.00;;
48526;SDS011;34317;51.660;5.824;2022-07-06T08:01:40;4.15;;;1.25;;
48526;SDS011;34317;51.660;5.824;2022-07-06T08:04:08;4.15;;;1.02;;
48526;SDS011;34317;51.660;5.824;2022-07-06T08:06:35;2.67;;;0.80;;
48526;SDS011;34317;51.660;5.824;2022-07-06T08:09:02;5.47;;;1.02;;
48526;SDS011;34317;51.660;5.824;2022-07-06T08:11:31;3.35;;;1.15;;
48526;SDS011;34317;51.660;5.824;2022-07-06T08:13:58;2.65;;;0.70;;
48526;SDS011;34317;51.660;5.824;2022-07-06T08:16:26;2.53;;;0.60;;
48526;SDS011;34317;51.660;5.824;2022-07-06T08:18:53;1.20;;;0.70;;
48526;SDS011;34317;51.660;5.824;2022-07-06T08:21:20;1.73;;;0.70;;
48526;SDS011;34317;51.660;5.824;2022-07-06T08:23:51;2.30;;;0.80;;
48526;SDS011;34317;51.660;5.824;2022-07-06T08:26:19;2.40;;;0.90;;
48526;SDS011;34317;51.660;5.824;2022-07-06T08:28:46;0.88;;;0.60;;
48526;SDS011;34317;51.660;5.824;2022-07-06T08:31:13;3.80;;;0.90;;
48526;SDS011;34317;51.660;5.824;2022-07-06T08:34:01;2.10;;;0.70;;
48526;SDS011;34317;51.660;5.824;2022-07-06T08:36:28;1.30;;;0.60;;
48526;SDS011;34317;51.660;5.824;2022-07-06T08:38:56;1.00;;;0.50;;
48526;SDS011;34317;51.660;5.824;2022-07-06T08:41:26;3.53;;;0.70;;
48526;SDS011;34317;51.660;5.824;2022-07-06T08:43:56;2.10;;;0.70;;
48526;SDS011;34317;51.660;5.824;2022-07-06T08:46:23;1.85;;;0.70;;
48526;SDS011;34317;51.660;5.824;2022-07-06T08:48:50;0.65;;;0.55;;
48526;SDS011;34317;51.660;5.824;2022-07-06T08:51:19;2.22;;;0.60;;
48526;SDS011;34317;51.660;5.824;2022-07-06T08:53:54;1.45;;;0.68;;
48526;SDS011;34317;51.660;5.824;2022-07-06T08:56:21;2.15;;;0.80;;
48526;SDS011;34317;51.660;5.824;2022-07-06T08:58:48;2.30;;;0.70;;
48526;SDS011;34317;51.660;5.824;2022-07-06T09:01:16;4.40;;;0.90;;
48526;SDS011;34317;51.660;5.824;2022-07-06T09:03:45;2.05;;;0.73;;
48526;SDS011;34317;51.660;5.824;2022-07-06T09:06:20;1.75;;;0.60;;
48526;SDS011;34317;51.660;5.824;2022-07-06T09:08:52;1.58;;;0.68;;
48526;SDS011;34317;51.660;5.824;2022-07-06T09:11:21;1.30;;;0.50;;
48526;SDS011;34317;51.660;5.824;2022-07-06T09:13:52;1.95;;;0.70;;
48526;SDS011;34317;51.660;5.824;2022-07-06T09:16:24;1.65;;;0.50;;
48526;SDS011;34317;51.660;5.824;2022-07-06T09:19:10;2.67;;;0.40;;
48526;SDS011;34317;51.660;5.824;2022-07-06T09:21:38;2.38;;;1.10;;
48526;SDS011;34317;51.660;5.824;2022-07-06T09:24:07;0.98;;;0.50;;
48526;SDS011;34317;51.660;5.824;2022-07-06T09:26:35;1.75;;;0.70;;
48526;SDS011;34317;51.660;5.824;2022-07-06T09:29:03;2.83;;;0.70;;
48526;SDS011;34317;51.660;5.824;2022-07-06T09:31:31;1.80;;;0.80;;
48526;SDS011;34317;51.660;5.824;2022-07-06T09:34:00;3.60;;;0.70;;
48526;SDS011;34317;51.660;5.824;2022-07-06T09:39:25;1.25;;;0.60;;
48526;SDS011;34317;51.660;5.824;2022-07-06T09:41:59;1.60;;;0.57;;
48526;SDS011;34317;51.660;5.824;2022-07-06T09:44:29;0.65;;;0.45;;
48526;SDS011;34317;51.660;5.824;2022-07-06T09:47:01;1.77;;;0.40;;
48526;SDS011;34317;51.660;5.824;2022-07-06T09:49:30;1.33;;;0.50;;
48526;SDS011;34317;51.660;5.824;2022-07-06T09:51:58;1.20;;;0.50;;
48526;SDS011;34317;51.660;5.824;2022-07-06T09:54:26;1.67;;;0.40;;
48526;SDS011;34317;51.660;5.824;2022-07-06T09:56:54;0.93;;;0.40;;
48526;SDS011;34317;51.660;5.824;2022-07-06T09:59:23;0.82;;;0.40;;
48526;SDS011;34317;51.660;5.824;2022-07-06T10:01:59;0.70;;;0.40;;
48526;SDS011;34317;51.660;5.824;2022-07-06T10:04:28;1.58;;;0.40;;
48526;SDS011;34317;51.660;5.824;2022-07-06T10:06:56;3.47;;;0.68;;
48526;SDS011;34317;51.660;5.824;2022-07-06T10:09:26;0.57;;;0.40;;
48526;SDS011;34317;51.660;5.824;2022-07-06T10:11:58;3.03;;;0.60;;
48526;SDS011;34317;51.660;5.824;2022-07-06T10:14:28;1.20;;;0.40;;
48526;SDS011;34317;51.660;5.824;2022-07-06T10:17:00;2.00;;;0.70;;
48526;SDS011;34317;51.660;5.824;2022-07-06T10:19:29;2.28;;;0.60;;
48526;SDS011;34317;51.660;5.824;2022-07-06T10:22:00;1.83;;;0.60;;
48526;SDS011;34317;51.660;5.824;2022-07-06T10:24:29;2.38;;;0.55;;
48526;SDS011;34317;51.660;5.824;2022-07-06T10:26:57;2.20;;;0.80;;
48526;SDS011;34317;51.660;5.824;2022-07-06T10:29:25;1.08;;;0.50;;
48526;SDS011;34317;51.660;5.824;2022-07-06T10:31:52;2.30;;;0.50;;
48526;SDS011;34317;51.660;5.824;2022-07-06T10:34:21;1.77;;;0.50;;
48526;SDS011;34317;51.660;5.824;2022-07-06T10:36:50;1.25;;;0.50;;
48526;SDS011;34317;51.660;5.824;2022-07-06T10:39:33;1.73;;;0.50;;
48526;SDS011;34317;51.660;5.824;2022-07-06T10:45:08;1.50;;;0.50;;
48526;SDS011;34317;51.660;5.824;2022-07-06T10:47:37;1.42;;;0.63;;
48526;SDS011;34317;51.660;5.824;2022-07-06T10:50:04;1.05;;;0.60;;
48526;SDS011;34317;51.660;5.824;2022-07-06T10:52:48;2.75;;;0.50;;
48526;SDS011;34317;51.660;5.824;2022-07-06T10:58:01;2.07;;;0.60;;
48526;SDS011;34317;51.660;5.824;2022-07-06T11:00:48;2.47;;;0.63;;
48526;SDS011;34317;51.660;5.824;2022-07-06T11:06:07;2.67;;;0.68;;
48526;SDS011;34317;51.660;5.824;2022-07-06T11:08:43;2.38;;;0.77;;
48526;SDS011;34317;51.660;5.824;2022-07-06T11:14:01;2.03;;;0.70;;
48526;SDS011;34317;51.660;5.824;2022-07-06T11:16:38;2.20;;;0.80;;
48526;SDS011;34317;51.660;5.824;2022-07-06T11:19:15;0.93;;;0.50;;
48526;SDS011;34317;51.660;5.824;2022-07-06T11:21:50;2.67;;;0.80;;
48526;SDS011;34317;51.660;5.824;2022-07-06T11:24:19;2.15;;;0.68;;
48526;SDS011;34317;51.660;5.824;2022-07-06T11:26:49;1.00;;;0.55;;
48526;SDS011;34317;51.660;5.824;2022-07-06T11:29:17;2.70;;;0.60;;
48526;SDS011;34317;51.660;5.824;2022-07-06T11:31:48;1.67;;;0.40;;
48526;SDS011;34317;51.660;5.824;2022-07-06T11:34:18;1.33;;;0.60;;
48526;SDS011;34317;51.660;5.824;2022-07-06T11:36:49;1.55;;;0.52;;
48526;SDS011;34317;51.660;5.824;2022-07-06T11:39:22;2.03;;;0.52;;
48526;SDS011;34317;51.660;5.824;2022-07-06T11:41:49;1.33;;;0.55;;
48526;SDS011;34317;51.660;5.824;2022-07-06T11:44:17;2.33;;;0.70;;
48526;SDS011;34317;51.660;5.824;2022-07-06T11:46:45;1.00;;;0.63;;
48526;SDS011;34317;51.660;5.824;2022-07-06T11:49:12;3.80;;;0.68;;
48526;SDS011;34317;51.660;5.824;2022-07-06T11:51:39;2.03;;;0.70;;
48526;SDS011;34317;51.660;5.824;2022-07-06T11:54:13;3.45;;;0.65;;
48526;SDS011;34317;51.660;5.824;2022-07-06T11:56:54;2.97;;;0.80;;
48526;SDS011;34317;51.660;5.824;2022-07-06T11:59:29;0.90;;;0.60;;
48526;SDS011;34317;51.660;5.824;2022-07-06T12:01:58;3.53;;;0.82;;
48526;SDS011;34317;51.660;5.824;2022-07-06T12:04:38;1.52;;;0.52;;
48526;SDS011;34317;51.660;5.824;2022-07-06T12:07:09;1.95;;;0.70;;
48526;SDS011;34317;51.660;5.824;2022-07-06T12:09:41;3.15;;;0.57;;
48526;SDS011;34317;51.660;5.824;2022-07-06T12:12:10;3.00;;;0.93;;
48526;SDS011;34317;51.660;5.824;2022-07-06T12:14:38;1.52;;;0.60;;
48526;SDS011;34317;51.660;5.824;2022-07-06T12:17:07;1.13;;;0.65;;
48526;SDS011;34317;51.660;5.824;2022-07-06T12:19:39;1.63;;;0.70;;
48526;SDS011;34317;51.660;5.824;2022-07-06T12:22:08;1.98;;;0.60;;
48526;SDS011;34317;51.660;5.824;2022-07-06T12:24:36;1.38;;;0.70;;
48526;SDS011;34317;51.660;5.824;2022-07-06T12:27:15;1.00;;;0.60;;
48526;SDS011;34317;51.660;5.824;2022-07-06T12:29:44;0.75;;;0.50;;
48526;SDS011;34317;51.660;5.824;2022-07-06T12:32:16;1.77;;;0.70;;
48526;SDS011;34317;51.660;5.824;2022-07-06T12:35:03;1.00;;;0.70;;
48526;SDS011;34317;51.660;5.824;2022-07-06T12:37:31;2.38;;;0.60;;
48526;SDS011;34317;51.660;5.824;2022-07-06T12:39:58;2.78;;;0.65;;
48526;SDS011;34317;51.660;5.824;2022-07-06T12:42:25;2.25;;;0.60;;
48526;SDS011;34317;51.660;5.824;2022-07-06T12:44:52;2.30;;;0.65;;
48526;SDS011;34317;51.660;5.824;2022-07-06T12:47:20;2.50;;;0.70;;
48526;SDS011;34317;51.660;5.824;2022-07-06T12:50:07;2.67;;;0.80;;
48526;SDS011;34317;51.660;5.824;2022-07-06T12:52:37;1.10;;;0.50;;
48526;SDS011;34317;51.660;5.824;2022-07-06T12:55:05;1.50;;;0.68;;
48526;SDS011;34317;51.660;5.824;2022-07-06T12:57:42;1.40;;;0.70;;
48526;SDS011;34317;51.660;5.824;2022-07-06T13:00:10;1.02;;;0.43;;
48526;SDS011;34317;51.660;5.824;2022-07-06T13:02:38;1.25;;;0.60;;
48526;SDS011;34317;51.660;5.824;2022-07-06T13:05:27;2.25;;;0.63;;
48526;SDS011;34317;51.660;5.824;2022-07-06T13:07:55;3.22;;;0.90;;
48526;SDS011;34317;51.660;5.824;2022-07-06T13:10:24;1.95;;;0.75;;
48526;SDS011;34317;51.660;5.824;2022-07-06T13:12:52;1.10;;;0.70;;
48526;SDS011;34317;51.660;5.824;2022-07-06T13:15:19;1.30;;;0.63;;
48526;SDS011;34317;51.660;5.824;2022-07-06T13:17:47;1.55;;;0.70;;
48526;SDS011;34317;51.660;5.824;2022-07-06T13:20:14;2.28;;;0.70;;
48526;SDS011;34317;51.660;5.824;2022-07-06T13:22:44;1.67;;;0.60;;
48526;SDS011;34317;51.660;5.824;2022-07-06T13:25:11;0.85;;;0.50;;
48526;SDS011;34317;51.660;5.824;2022-07-06T13:27:40;0.95;;;0.70;;
48526;SDS011;34317;51.660;5.824;2022-07-06T13:30:07;1.90;;;0.50;;
48526;SDS011;34317;51.660;5.824;2022-07-06T13:32:35;2.85;;;0.70;;
48526;SDS011;34317;51.660;5.824;2022-07-06T13:35:02;1.00;;;0.57;;
48526;SDS011;34317;51.660;5.824;2022-07-06T13:37:30;2.22;;;0.88;;
48526;SDS011;34317;51.660;5.824;2022-07-06T13:39:57;1.15;;;0.73;;
48526;SDS011;34317;51.660;5.824;2022-07-06T13:42:24;4.10;;;1.00;;
48526;SDS011;34317;51.660;5.824;2022-07-06T13:44:51;1.70;;;0.93;;
48526;SDS011;34317;51.660;5.824;2022-07-06T13:47:18;2.15;;;0.70;;
48526;SDS011;34317;51.660;5.824;2022-07-06T13:49:45;2.25;;;0.80;;
48526;SDS011;34317;51.660;5.824;2022-07-06T13:52:14;1.48;;;0.70;;
48526;SDS011;34317;51.660;5.824;2022-07-06T13:54:42;2.17;;;0.80;;
48526;SDS011;34317;51.660;5.824;2022-07-06T13:57:09;2.33;;;0.70;;
48526;SDS011;34317;51.660;5.824;2022-07-06T13:59:36;2.00;;;0.60;;
48526;SDS011;34317;51.660;5.824;2022-07-06T14:02:03;1.83;;;0.70;;
48526;SDS011;34317;51.660;5.824;2022-07-06T14:04:31;1.83;;;0.65;;
48526;SDS011;34317;51.660;5.824;2022-07-06T14:06:58;1.33;;;0.73;;
48526;SDS011;34317;51.660;5.824;2022-07-06T14:09:25;1.58;;;0.68;;
48526;SDS011;34317;51.660;5.824;2022-07-06T14:11:52;1.67;;;0.70;;
48526;SDS011;34317;51.660;5.824;2022-07-06T14:14:19;1.38;;;0.70;;
48526;SDS011;34317;51.660;5.824;2022-07-06T14:16:46;1.25;;;0.60;;
48526;SDS011;34317;51.660;5.824;2022-07-06T14:19:14;2.05;;;0.80;;
48526;SDS011;34317;51.660;5.824;2022-07-06T14:21:46;1.40;;;0.93;;
48526;SDS011;34317;51.660;5.824;2022-07-06T14:24:14;2.72;;;0.70;;
48526;SDS011;34317;51.660;5.824;2022-07-06T14:26:41;2.15;;;0.70;;
48526;SDS011;34317;51.660;5.824;2022-07-06T14:29:09;2.85;;;0.80;;
48526;SDS011;34317;51.660;5.824;2022-07-06T14:31:36;2.38;;;0.70;;
48526;SDS011;34317;51.660;5.824;2022-07-06T14:34:03;2.05;;;0.60;;
48526;SDS011;34317;51.660;5.824;2022-07-06T14:36:30;2.38;;;0.80;;
48526;SDS011;34317;51.660;5.824;2022-07-06T14:38:57;1.83;;;0.55;;
48526;SDS011;34317;51.660;5.824;2022-07-06T14:41:24;1.83;;;0.65;;
48526;SDS011;34317;51.660;5.824;2022-07-06T14:43:52;1.33;;;0.63;;
48526;SDS011;34317;51.660;5.824;2022-07-06T14:46:19;1.48;;;0.70;;
48526;SDS011;34317;51.660;5.824;2022-07-06T14:48:46;3.22;;;0.95;;
48526;SDS011;34317;51.660;5.824;2022-07-06T14:51:13;1.92;;;0.80;;
48526;SDS011;34317;51.660;5.824;2022-07-06T14:53:40;3.17;;;0.80;;
48526;SDS011;34317;51.660;5.824;2022-07-06T14:56:08;2.78;;;0.70;;
48526;SDS011;34317;51.660;5.824;2022-07-06T14:58:35;1.65;;;0.70;;
48526;SDS011;34317;51.660;5.824;2022-07-06T15:01:04;1.35;;;0.68;;
48526;SDS011;34317;51.660;5.824;2022-07-06T15:03:32;1.77;;;0.70;;
48526;SDS011;34317;51.660;5.824;2022-07-06T15:05:59;1.38;;;0.70;;
48526;SDS011;34317;51.660;5.824;2022-07-06T15:08:26;2.70;;;0.73;;
48526;SDS011;34317;51.660;5.824;2022-07-06T15:10:53;1.33;;;0.60;;
48526;SDS011;34317;51.660;5.824;2022-07-06T15:13:21;4.07;;;0.93;;